createdAt,value
2018-12-24T00:02:11.282Z,100181.09
2018-12-24T00:04:40.497Z,100190.77
2018-12-24T00:07:09.736Z,100190.97
2018-12-24T00:09:38.952Z,100200.33
2018-12-24T00:12:09.101Z,100202.50
2018-12-24T00:14:38.294Z,100209.00
2018-12-24T00:17:07.516Z,100211.86
2018-12-24T00:19:36.716Z,100219.11
2018-12-24T00:22:07.005Z,100224.14
2018-12-24T00:24:36.527Z,100230.36
2018-12-24T00:27:05.839Z,100231.04
2018-12-24T00:29:35.062Z,100220.19
2018-12-24T00:32:04.315Z,100232.46
2018-12-24T00:34:33.595Z,100233.50
2018-12-24T00:39:39.023Z,100246.28
2018-12-24T00:42:15.767Z,100258.56
2018-12-24T00:44:39.597Z,100264.18
2018-12-24T00:47:09.203Z,100279.27
2018-12-24T00:49:38.462Z,100284.37
2018-12-24T00:52:07.732Z,100279.86
2018-12-24T00:54:57.485Z,100299.92
2018-12-24T00:57:26.849Z,100298.66
2018-12-24T00:59:56.085Z,100314.73
2018-12-24T01:02:25.276Z,100326.53
2018-12-24T01:04:54.806Z,100334.38
2018-12-24T01:07:26.391Z,100339.67
2018-12-24T01:09:55.636Z,100356.91
2018-12-24T01:12:24.973Z,100360.40
2018-12-24T01:14:54.558Z,100367.55
2018-12-24T01:17:24.103Z,100375.72
2018-12-24T01:19:53.367Z,100390.14
2018-12-24T01:22:22.848Z,100394.89
2018-12-24T01:24:52.447Z,100409.19
2018-12-24T01:27:21.940Z,100413.86
2018-12-24T01:29:51.215Z,100422.03
2018-12-24T01:32:20.535Z,100426.16
2018-12-24T01:34:49.869Z,100431.03
2018-12-24T01:37:19.258Z,100436.60
2018-12-24T01:39:48.796Z,100437.34
2018-12-24T01:42:18.189Z,100451.13
2018-12-24T01:44:47.802Z,100466.44
2018-12-24T01:47:17.156Z,100462.91
2018-12-24T01:49:46.389Z,100479.51
2018-12-24T01:52:15.652Z,100489.22
2018-12-24T01:54:44.971Z,100487.04
2018-12-24T01:57:14.296Z,100490.98
2018-12-24T01:59:43.579Z,100492.52
2018-12-24T02:02:12.844Z,100474.45
2018-12-24T02:04:42.120Z,100495.95
2018-12-24T02:07:11.380Z,100439.05
2018-12-24T02:09:40.673Z,100505.97
2018-12-24T02:12:09.986Z,100507.32
2018-12-24T02:14:39.612Z,100487.70
2018-12-24T02:17:08.921Z,100522.86
2018-12-24T02:19:38.129Z,100527.31
2018-12-24T02:22:12.762Z,100537.47
2018-12-24T02:24:38.698Z,100543.05
2018-12-24T02:27:07.920Z,100557.82
2018-12-24T02:29:37.519Z,100546.77
2018-12-24T02:32:06.681Z,100554.84
2018-12-24T02:34:35.913Z,100558.65
2018-12-24T02:37:05.596Z,100556.57
2018-12-24T02:39:34.871Z,100555.55
2018-12-24T02:42:04.127Z,100565.48
2018-12-24T02:44:33.675Z,100562.56
2018-12-24T02:47:02.937Z,100570.35
2018-12-24T02:49:32.293Z,100576.56
2018-12-24T02:52:01.538Z,100580.50
2018-12-24T02:54:30.784Z,100586.79
2018-12-24T02:57:00.073Z,100592.63
2018-12-24T02:59:29.359Z,100599.34
2018-12-24T03:01:59.009Z,100605.24
2018-12-24T03:04:28.669Z,100600.98
2018-12-24T03:06:58.316Z,100613.70
2018-12-24T03:09:27.605Z,100617.75
2018-12-24T03:11:56.841Z,100627.59
2018-12-24T03:14:26.077Z,100628.94
2018-12-24T03:16:55.354Z,100634.71
2018-12-24T03:19:24.596Z,100633.59
2018-12-24T03:21:53.916Z,100640.31
2018-12-24T03:24:23.209Z,100648.49
2018-12-24T03:26:52.516Z,100649.33
2018-12-24T03:29:21.747Z,100658.11
2018-12-24T03:31:51.018Z,100657.91
2018-12-24T03:34:20.246Z,100654.39
2018-12-24T03:36:49.514Z,100655.33
2018-12-24T03:39:19.104Z,100657.69
2018-12-24T03:41:48.374Z,100662.56
2018-12-24T03:44:17.636Z,100673.34
2018-12-24T03:46:46.884Z,100676.93
2018-12-24T03:49:16.136Z,100656.03
2018-12-24T03:51:45.407Z,100677.48
2018-12-24T03:54:15.034Z,100675.30
2018-12-24T03:56:44.286Z,100682.96
2018-12-24T03:59:13.503Z,100683.25
2018-12-24T04:01:42.733Z,100675.91
2018-12-24T04:04:12.011Z,100682.86
2018-12-24T04:06:41.316Z,100695.59
2018-12-24T04:09:10.610Z,100691.33
2018-12-24T04:11:39.831Z,100707.81
2018-12-24T04:14:09.397Z,100715.05
2018-12-24T04:16:38.628Z,100718.98
2018-12-24T04:19:08.230Z,100724.16
2018-12-24T04:21:37.483Z,100730.38
2018-12-24T04:24:06.778Z,100731.82
2018-12-24T04:26:36.026Z,100739.39
2018-12-24T04:29:05.304Z,100752.85
2018-12-24T04:31:34.604Z,100754.71
2018-12-24T04:34:03.890Z,100753.58
2018-12-24T04:36:33.161Z,100762.79
2018-12-24T04:39:02.417Z,100764.23
2018-12-24T04:41:31.676Z,100761.65
2018-12-24T04:44:01.233Z,100763.00
2018-12-24T04:46:30.467Z,100769.02
2018-12-24T04:49:39.064Z,100759.08
2018-12-24T04:52:08.275Z,100759.49
2018-12-24T04:54:37.513Z,100764.66
2018-12-24T04:57:06.965Z,100775.84
2018-12-24T04:59:36.181Z,100776.89
2018-12-24T05:02:05.384Z,100796.03
2018-12-24T05:04:34.606Z,100798.72
2018-12-24T05:07:04.060Z,100807.95
2018-12-24T05:09:33.268Z,100817.48
2018-12-24T05:12:02.457Z,100831.46
2018-12-24T05:14:31.959Z,100839.31
2018-12-24T05:17:01.156Z,100843.69
2018-12-24T05:19:30.368Z,100858.78
2018-12-24T05:21:59.608Z,100868.53
2018-12-24T05:24:28.810Z,100875.16
2018-12-24T05:26:58.390Z,100877.74
2018-12-24T05:29:27.595Z,100885.09
2018-12-24T05:31:56.826Z,100891.31
2018-12-24T05:34:26.043Z,100896.48
2018-12-24T05:36:55.270Z,100903.76
2018-12-24T05:39:24.801Z,100917.30
2018-12-24T05:41:54.053Z,100907.87
2018-12-24T05:44:23.259Z,100922.17
2018-12-24T05:46:52.521Z,100930.36
2018-12-24T05:49:21.732Z,100934.41
2018-12-24T05:51:50.981Z,100936.47
2018-12-24T05:54:20.191Z,100941.64
2018-12-24T05:56:49.413Z,100944.66
2018-12-24T05:59:18.644Z,100959.77
2018-12-24T06:01:47.867Z,100962.91
2018-12-24T06:04:17.373Z,100964.76
2018-12-24T06:06:46.618Z,100970.14
2018-12-24T06:09:15.844Z,100979.90
2018-12-24T06:11:45.082Z,100988.78
2018-12-24T06:14:14.278Z,100986.63
2018-12-24T06:16:43.475Z,100999.89
2018-12-24T06:19:12.702Z,101001.56
2018-12-24T06:21:42.196Z,101003.41
2018-12-24T06:24:11.707Z,101005.38
2018-12-24T06:26:40.907Z,101017.50
2018-12-24T06:29:10.152Z,101026.31
2018-12-24T06:31:39.354Z,101022.78
2018-12-24T06:34:08.576Z,101030.74
2018-12-24T06:36:37.775Z,101036.75
2018-12-24T06:39:08.118Z,101038.09
2018-12-24T06:41:37.338Z,101044.83
2018-12-24T06:44:07.110Z,101053.97
2018-12-24T06:46:37.494Z,101054.08
2018-12-24T06:49:06.724Z,101055.31
2018-12-24T06:51:35.918Z,101056.33
2018-12-24T06:54:05.127Z,101062.83
2018-12-24T06:56:34.330Z,101070.00
2018-12-24T06:59:05.346Z,101070.84
2018-12-24T07:01:34.497Z,101082.24
2018-12-24T07:04:03.976Z,101079.84
2018-12-24T07:06:33.199Z,101084.52
2018-12-24T07:09:02.835Z,101086.19
2018-12-24T07:11:32.049Z,101089.17
2018-12-24T07:14:01.253Z,101086.91
2018-12-24T07:16:30.475Z,101087.20
2018-12-24T07:18:59.675Z,101096.45
2018-12-24T07:21:28.920Z,101095.40
2018-12-24T07:23:58.115Z,101106.00
2018-12-24T07:26:27.737Z,101108.48
2018-12-24T07:28:59.123Z,101124.52
2018-12-24T07:31:28.024Z,101121.95
2018-12-24T07:33:57.228Z,101129.81
2018-12-24T07:36:26.729Z,101132.12
2018-12-24T07:38:56.015Z,101128.68
2018-12-24T07:41:25.270Z,101132.94
2018-12-24T07:43:54.848Z,101138.32
2018-12-24T07:46:24.115Z,101144.61
2018-12-24T07:48:53.586Z,101157.23
2018-12-24T07:51:22.798Z,101162.95
2018-12-24T07:53:51.838Z,101158.28
2018-12-24T07:56:21.038Z,101164.51
2018-12-24T07:58:50.269Z,101167.83
2018-12-24T08:01:19.473Z,101169.69
2018-12-24T08:03:48.698Z,101170.94
2018-12-24T08:06:17.903Z,101176.33
2018-12-24T08:08:47.114Z,101184.02
2018-12-24T08:11:16.326Z,101177.17
2018-12-24T08:13:46.262Z,101185.55
2018-12-24T08:16:15.467Z,101192.10
2018-12-24T08:18:44.703Z,101201.32
2018-12-24T08:21:14.207Z,101194.08
2018-12-24T08:23:43.755Z,101198.12
2018-12-24T08:26:12.950Z,101198.36
2018-12-24T08:28:42.157Z,101204.13
2018-12-24T08:31:11.399Z,101210.78
2018-12-24T08:33:40.605Z,101215.20
2018-12-24T08:36:09.821Z,101222.78
2018-12-24T08:38:39.022Z,101227.03
2018-12-24T08:41:08.242Z,101236.67
2018-12-24T08:43:37.438Z,101238.83
2018-12-24T08:46:06.663Z,101233.44
2018-12-24T08:48:35.869Z,101248.70
2018-12-24T08:51:05.424Z,101251.58
2018-12-24T08:53:34.644Z,101258.64
2018-12-24T08:56:03.858Z,101273.25
2018-12-24T08:58:33.087Z,101272.62
2018-12-24T09:01:02.685Z,101286.60
2018-12-24T09:03:31.951Z,101287.66
2018-12-24T09:06:01.180Z,101293.28
2018-12-24T09:08:33.579Z,101300.91
2018-12-24T09:11:03.099Z,101306.62
2018-12-24T09:13:32.299Z,101312.27
2018-12-24T09:16:01.583Z,101317.53
2018-12-24T09:18:30.846Z,101320.53
2018-12-24T09:21:00.029Z,101323.55
2018-12-24T09:23:29.275Z,101326.25
2018-12-24T09:25:58.475Z,101326.50
2018-12-24T09:28:28.303Z,101336.10
2018-12-24T09:30:57.491Z,101338.37
2018-12-24T09:33:26.718Z,101342.20
2018-12-24T09:40:36.281Z,101351.43
2018-12-24T09:43:05.917Z,101359.84
2018-12-24T09:45:35.121Z,101363.68
2018-12-24T09:48:04.611Z,101370.62
2018-12-24T09:50:33.866Z,101368.48
2018-12-24T09:53:03.072Z,101378.96
2018-12-24T09:55:32.271Z,101387.34
2018-12-24T09:58:01.560Z,101387.34
2018-12-24T10:00:30.771Z,101390.45
2018-12-24T10:03:38.035Z,101392.81
2018-12-24T10:06:45.268Z,101395.30
2018-12-24T10:09:15.861Z,101398.76
2018-12-24T10:11:45.319Z,101396.70
2018-12-24T10:14:14.532Z,101401.78
2018-12-24T10:16:43.740Z,101395.05
2018-12-24T10:19:12.954Z,101391.43
2018-12-24T10:21:42.200Z,101390.13
2018-12-24T10:24:11.642Z,101395.52
2018-12-24T10:26:41.130Z,101389.99
2018-12-24T10:29:10.339Z,101392.35
2018-12-24T10:31:39.546Z,101396.34
2018-12-24T10:34:08.735Z,101404.06
2018-12-24T10:36:37.971Z,101409.66
2018-12-24T10:39:08.831Z,101417.66
2018-12-24T10:41:38.066Z,101429.42
2018-12-24T10:44:07.275Z,101426.34
2018-12-24T10:46:36.505Z,101423.95
2018-12-24T10:49:05.699Z,101430.64
2018-12-24T10:51:34.920Z,101426.92
2018-12-24T10:54:04.389Z,101430.34
2018-12-24T10:56:33.599Z,101429.20
2018-12-24T10:59:02.808Z,101430.05
2018-12-24T11:01:32.047Z,101436.07
2018-12-24T11:04:01.228Z,101440.29
2018-12-24T11:06:30.456Z,101431.94
2018-12-24T11:08:59.652Z,101427.39
2018-12-24T11:11:30.610Z,101432.88
2018-12-24T11:14:00.091Z,101430.67
2018-12-24T11:16:29.292Z,101438.22
2018-12-24T11:18:58.530Z,101439.23
2018-12-24T11:21:27.757Z,101443.65
2018-12-24T11:23:57.288Z,101439.09
2018-12-24T11:26:26.767Z,101441.46
2018-12-24T11:28:56.371Z,101438.64
2018-12-24T11:31:25.577Z,101444.63
2018-12-24T11:33:54.848Z,101447.66
2018-12-24T11:36:24.051Z,101447.23
2018-12-24T11:38:53.249Z,101447.49
2018-12-24T11:41:22.443Z,101450.86
2018-12-24T11:43:51.911Z,101452.96
2018-12-24T11:46:21.462Z,101443.27
2018-12-24T11:48:50.774Z,101442.31
2018-12-24T11:51:19.967Z,101444.11
2018-12-24T11:53:49.226Z,101441.24
2018-12-24T11:56:18.674Z,101456.09
2018-12-24T11:58:48.189Z,101459.44
2018-12-24T12:01:17.383Z,101474.11
2018-12-24T12:03:46.598Z,101485.98
2018-12-24T12:06:19.630Z,101489.19
2018-12-24T12:08:47.024Z,101488.69
2018-12-24T12:11:16.484Z,101482.53
2018-12-24T12:13:45.694Z,101485.48
2018-12-24T12:16:14.899Z,101480.47
2018-12-24T12:18:44.108Z,101483.05
2018-12-24T12:21:13.314Z,101488.03
2018-12-24T12:23:42.800Z,101492.27
2018-12-24T12:28:46.626Z,101495.83
2018-12-24T12:31:15.834Z,101495.27
2018-12-24T12:33:45.076Z,101501.35
2018-12-24T12:36:14.298Z,101496.42
2018-12-24T12:38:43.491Z,101495.96
2018-12-24T12:41:12.697Z,101495.66
2018-12-24T12:43:41.880Z,101499.96
2018-12-24T12:46:11.095Z,101502.00
2018-12-24T12:48:40.283Z,101506.62
2018-12-24T12:51:09.505Z,101498.94
2018-12-24T12:53:57.681Z,101508.04
2018-12-24T12:56:26.894Z,101510.95
2018-12-24T12:58:56.111Z,101509.84
2018-12-24T13:01:25.336Z,101521.61
2018-12-24T13:03:54.579Z,101535.27
2018-12-24T13:06:24.058Z,101539.86
2018-12-24T13:08:53.253Z,101542.39
2018-12-24T13:11:22.451Z,101544.59
2018-12-24T13:13:51.631Z,101559.20
2018-12-24T13:16:41.324Z,101579.56
2018-12-24T13:19:10.529Z,101589.86
2018-12-24T13:21:41.886Z,101596.99
2018-12-24T13:24:10.664Z,101599.40
2018-12-24T13:26:39.888Z,101616.81
2018-12-24T13:29:09.086Z,101616.81
2018-12-24T13:31:38.289Z,101616.56
2018-12-24T13:34:07.484Z,101609.98
2018-12-24T13:36:36.686Z,101614.81
2018-12-24T13:39:07.535Z,101611.17
2018-12-24T13:41:36.735Z,101611.75
2018-12-24T13:44:05.933Z,101622.60
2018-12-24T13:46:35.400Z,101613.30
2018-12-24T13:49:04.582Z,101617.84
2018-12-24T13:51:33.830Z,101620.48
2018-12-24T13:54:03.007Z,101625.05
2018-12-24T13:56:32.450Z,101627.19
2018-12-24T13:59:01.698Z,101632.38
2018-12-24T14:01:31.183Z,101635.45
2018-12-24T14:04:00.833Z,101630.64
2018-12-24T14:06:30.038Z,101629.97
2018-12-24T14:08:59.270Z,101636.22
2018-12-24T14:11:28.479Z,101649.94
2018-12-24T14:13:58.077Z,101661.52
2018-12-24T14:16:27.262Z,101660.63
2018-12-24T14:18:56.762Z,101662.61
2018-12-24T14:21:25.962Z,101665.68
2018-12-24T14:23:55.215Z,101666.14
2018-12-24T14:26:24.413Z,101666.49
2018-12-24T14:28:53.658Z,101662.83
2018-12-24T14:31:42.057Z,101670.38
2018-12-24T14:34:11.544Z,101664.17
2018-12-24T14:36:40.743Z,101667.98
2018-12-24T14:39:10.221Z,101679.67
2018-12-24T14:41:39.418Z,101686.41
2018-12-24T14:44:08.771Z,101694.15
2018-12-24T14:46:38.201Z,101692.50
2018-12-24T14:49:07.451Z,101700.88
2018-12-24T14:51:36.954Z,101699.88
2018-12-24T14:54:06.157Z,101707.77
2018-12-24T14:56:35.344Z,101704.01
2018-12-24T14:59:04.578Z,101707.34
2018-12-24T15:01:33.839Z,101714.91
2018-12-24T15:04:03.292Z,101709.09
2018-12-24T15:06:32.505Z,101712.91
2018-12-24T15:09:01.686Z,101720.12
2018-12-24T15:11:31.187Z,101724.06
2018-12-24T15:14:00.386Z,101730.17
2018-12-24T15:16:34.094Z,101730.77
2018-12-24T15:19:00.790Z,101722.36
2018-12-24T15:21:30.047Z,101731.89
2018-12-24T15:23:59.499Z,101735.31
2018-12-24T15:26:28.712Z,101730.44
2018-12-24T15:28:57.904Z,101738.41
2018-12-24T15:31:27.121Z,101732.06
2018-12-24T15:33:56.585Z,101724.63
2018-12-24T15:36:25.784Z,101721.71
2018-12-24T15:38:54.972Z,101714.25
2018-12-24T15:41:24.178Z,101716.05
2018-12-24T15:43:53.350Z,101716.45
2018-12-24T15:46:22.563Z,101716.41
2018-12-24T15:48:51.768Z,101720.23
2018-12-24T15:51:21.029Z,101723.47
2018-12-24T15:53:50.495Z,101727.69
2018-12-24T15:56:19.779Z,101725.34
2018-12-24T15:58:48.977Z,101720.72
2018-12-24T16:03:52.976Z,101720.34
2018-12-24T16:06:22.184Z,101724.90
2018-12-24T16:08:51.352Z,101719.05
2018-12-24T16:14:17.365Z,101720.58
2018-12-24T16:16:50.994Z,101720.25
2018-12-24T16:19:17.487Z,101712.05
2018-12-24T16:21:46.693Z,101710.69
2018-12-24T16:24:15.872Z,101708.86
2018-12-24T16:26:45.094Z,101713.69
2018-12-24T16:29:14.312Z,101715.35
2018-12-24T16:31:43.505Z,101713.34
2018-12-24T16:34:12.712Z,101704.95
2018-12-24T16:36:41.908Z,101708.97
2018-12-24T16:39:11.101Z,101718.66
2018-12-24T16:58:00.167Z,101714.70
2018-12-24T17:00:29.667Z,101711.70
2018-12-24T17:02:58.853Z,101719.36
2018-12-24T17:05:28.343Z,101728.25
2018-12-24T17:07:57.562Z,101721.02
2018-12-24T17:10:26.767Z,101722.72
2018-12-24T17:12:56.002Z,101738.10
2018-12-24T17:15:25.243Z,101755.53
2018-12-24T17:17:54.750Z,101741.73
2018-12-24T17:20:24.236Z,101734.06
2018-12-24T17:22:53.707Z,101730.94
2018-12-24T17:25:23.838Z,101742.15
2018-12-24T17:27:54.112Z,101755.91
2018-12-24T17:30:23.330Z,101757.42
2018-12-24T17:32:52.794Z,101755.16
2018-12-24T17:35:22.043Z,101763.76
2018-12-24T17:37:58.862Z,101749.39
2018-12-24T17:40:28.090Z,101748.79
2018-12-24T17:42:57.273Z,101751.56
2018-12-24T17:45:26.496Z,101750.86
2018-12-24T17:47:55.749Z,101769.56
2018-12-24T17:50:25.325Z,101772.94
2018-12-24T17:52:54.518Z,101778.31
2018-12-24T17:55:23.723Z,101789.52
2018-12-24T17:57:52.952Z,101799.94
2018-12-24T18:00:22.195Z,101805.28
2018-12-24T18:02:51.449Z,101803.88
2018-12-24T18:05:20.962Z,101806.84
2018-12-24T18:07:50.194Z,101809.11
2018-12-24T18:10:19.381Z,101811.42
2018-12-24T18:12:48.898Z,101814.50
2018-12-24T18:15:18.103Z,101818.92
2018-12-24T18:17:47.341Z,101814.14
2018-12-24T18:20:16.554Z,101822.13
2018-12-24T18:22:46.378Z,101826.73
2018-12-24T18:25:15.721Z,101837.41
2018-12-24T18:27:44.951Z,101840.61
2018-12-24T18:30:14.158Z,101842.18
2018-12-24T18:32:43.651Z,101847.10
2018-12-24T18:35:13.155Z,101850.87
2018-12-24T18:37:42.378Z,101861.27
2018-12-24T18:40:11.581Z,101859.48
2018-12-24T18:42:41.125Z,101854.66
2018-12-24T18:45:10.320Z,101855.39
2018-12-24T18:47:39.554Z,101863.25
2018-12-24T18:50:08.924Z,101866.20
2018-12-24T18:52:38.843Z,101867.46
2018-12-24T18:55:08.043Z,101870.91
2018-12-24T18:57:37.492Z,101884.51
2018-12-24T19:00:08.772Z,101894.75
2018-12-24T19:02:38.047Z,101908.30
2018-12-24T19:05:08.338Z,101912.67
2018-12-24T19:07:38.302Z,101920.81
2018-12-24T19:10:08.190Z,101908.95
2018-12-24T19:12:37.436Z,101909.75
2018-12-24T19:15:06.860Z,101912.30
2018-12-24T19:17:41.379Z,101916.91
2018-12-24T19:20:09.294Z,101918.31
2018-12-24T19:22:38.509Z,101914.06
2018-12-24T19:25:08.037Z,101935.58
2018-12-24T19:27:37.314Z,101946.77
2018-12-24T19:30:07.715Z,101950.33
2018-12-24T19:32:38.063Z,101957.75
2018-12-24T19:35:07.327Z,101945.98
2018-12-24T19:37:36.843Z,101935.37
2018-12-24T19:40:07.388Z,101935.63
2018-12-24T19:42:37.564Z,101931.01
2018-12-24T19:45:07.224Z,101935.66
2018-12-24T19:47:36.425Z,101941.28
2018-12-24T19:50:05.741Z,101952.41
2018-12-24T19:52:35.185Z,101952.16
2018-12-24T19:55:04.691Z,101954.72
2018-12-24T19:57:34.154Z,101959.65
2018-12-24T20:00:03.832Z,101961.84
2018-12-24T20:02:33.389Z,101962.01
2018-12-24T20:05:02.665Z,101964.48
2018-12-24T20:07:31.858Z,101959.03
2018-12-24T20:10:01.069Z,101957.22
2018-12-24T20:12:30.293Z,101961.86
2018-12-24T20:15:00.088Z,101964.53
2018-12-24T20:17:29.291Z,101959.67
2018-12-24T20:19:58.764Z,101965.59
2018-12-24T20:22:28.011Z,101954.49
2018-12-24T20:24:57.215Z,101958.92
2018-12-24T20:27:26.705Z,101962.86
2018-12-24T20:29:55.910Z,101960.25
2018-12-24T20:32:25.127Z,101958.49
2018-12-24T20:34:55.005Z,101955.61
2018-12-24T20:37:24.339Z,101959.34
2018-12-24T20:39:54.198Z,101958.44
2018-12-24T20:42:23.419Z,101957.37
2018-12-24T20:44:52.927Z,101954.70
2018-12-24T20:47:22.449Z,101951.97
2018-12-24T20:49:51.643Z,101956.19
2018-12-24T20:52:21.141Z,101954.64
2018-12-24T20:54:50.340Z,101956.27
2018-12-24T20:57:19.836Z,101951.41
2018-12-24T20:59:49.332Z,101959.83
2018-12-24T21:02:18.829Z,101964.24
2018-12-24T21:04:48.047Z,101969.29
2018-12-24T21:07:17.272Z,101961.55
2018-12-24T21:09:47.144Z,101974.69
2018-12-24T21:12:16.366Z,101974.47
2018-12-24T21:14:45.569Z,101975.61
2018-12-24T21:17:14.760Z,101978.35
2018-12-24T21:19:43.973Z,101980.88
2018-12-24T21:22:13.466Z,101975.17
2018-12-24T21:24:42.695Z,101975.03
2018-12-24T21:27:11.884Z,101972.00
2018-12-24T21:29:41.388Z,101967.55
2018-12-24T21:32:10.866Z,101977.98
2018-12-24T21:34:40.427Z,101973.36
2018-12-24T21:37:09.629Z,101971.10
2018-12-24T21:39:38.903Z,101973.48
2018-12-24T21:42:08.172Z,101975.93
2018-12-24T21:44:37.398Z,101979.00
2018-12-24T21:47:06.697Z,101969.90
2018-12-24T21:52:30.384Z,101963.30
2018-12-24T21:54:59.603Z,101957.27
2018-12-24T21:57:28.829Z,101962.48
2018-12-24T21:59:58.137Z,101963.41
2018-12-24T22:02:27.321Z,101967.73
2018-12-24T22:04:56.808Z,101967.59
2018-12-24T22:07:26.018Z,101968.56
2018-12-24T22:09:55.223Z,101965.68
2018-12-24T22:12:24.713Z,101964.98
2018-12-24T22:14:53.985Z,101968.76
2018-12-24T22:17:23.441Z,101970.38
2018-12-24T22:19:52.651Z,101973.68
2018-12-24T22:22:21.900Z,101974.09
2018-12-24T22:24:51.124Z,101981.56
2018-12-24T22:27:20.609Z,101977.94
2018-12-24T22:29:49.804Z,101974.59
2018-12-24T22:32:19.032Z,101973.45
2018-12-24T22:34:48.776Z,101968.05
2018-12-24T22:37:17.993Z,101975.90
2018-12-24T22:39:47.461Z,101980.23
2018-12-24T22:42:16.703Z,101983.97
2018-12-24T22:44:45.895Z,101976.70
2018-12-24T22:47:15.427Z,101986.83
2018-12-24T22:49:44.639Z,101981.11
2018-12-24T22:52:13.855Z,101991.97
2018-12-24T22:54:43.081Z,101993.73
2018-12-24T22:57:12.270Z,101990.65
2018-12-24T22:59:41.915Z,101994.02
2018-12-24T23:02:11.097Z,101992.54
2018-12-24T23:04:40.313Z,102001.39
2018-12-24T23:07:09.518Z,101999.84
2018-12-24T23:09:39.116Z,101999.27
2018-12-24T23:12:08.312Z,101995.81
2018-12-24T23:14:37.548Z,101996.60
2018-12-24T23:17:07.126Z,101996.12
2018-12-24T23:19:36.328Z,101991.42
2018-12-24T23:22:05.540Z,101988.69
2018-12-24T23:24:34.768Z,101995.78
2018-12-24T23:27:03.960Z,101994.72
2018-12-24T23:29:52.511Z,101991.89
2018-12-24T23:32:22.283Z,101991.30
2018-12-24T23:34:51.865Z,101998.23
2018-12-24T23:37:21.608Z,101991.30
2018-12-24T23:39:50.860Z,101990.66
2018-12-24T23:42:20.072Z,101983.41
2018-12-24T23:44:49.602Z,101987.20
2018-12-24T23:47:18.809Z,101988.27
2018-12-24T23:49:48.008Z,101994.09
2018-12-24T23:52:17.774Z,101999.70
2018-12-24T23:54:47.255Z,102002.21
2018-12-24T23:57:16.472Z,101999.97
2018-12-24T23:59:45.949Z,101998.78
